Time;durP1;ratioP1;P1;durP2;ratioP2;P2;SDS_P1;SDS_P2;PMS_P1;PMS_P2;Temp;Humidity;BMP_temperature;BMP_pressure;BME280_temperature;BME280_humidity;BME280_pressure;Samples;Min_cycle;Max_cycle;Signal;HPM_P1;HPM_P2
2022/10/31 00:00:22;;;;;;;14.05;8.95;;;14.60;99.90;;;;;;6276634;22;20011;-82
2022/10/31 00:02:47;;;;;;;14.05;10.00;;;14.60;99.90;;;;;;6278075;22;20016;-82
2022/10/31 00:05:13;;;;;;;12.73;9.13;;;14.50;99.90;;;;;;6251198;22;20511;-82
2022/10/31 00:07:39;;;;;;;14.75;9.75;;;14.50;99.90;;;;;;6249779;22;20098;-82
2022/10/31 00:10:05;;;;;;;13.38;8.77;;;14.50;99.90;;;;;;6277419;22;20020;-82
2022/10/31 00:12:31;;;;;;;15.15;9.70;;;14.50;99.90;;;;;;6250207;22;20069;-82
2022/10/31 00:14:56;;;;;;;13.25;9.00;;;14.40;99.90;;;;;;6275779;22;20095;-82
2022/10/31 00:17:22;;;;;;;13.55;8.82;;;14.40;99.90;;;;;;6250507;22;20022;-83
2022/10/31 00:19:47;;;;;;;12.18;9.25;;;14.40;99.90;;;;;;6250134;22;20444;-82
2022/10/31 00:22:13;;;;;;;15.88;9.63;;;14.40;99.90;;;;;;6249831;22;20011;-82
2022/10/31 00:24:39;;;;;;;12.40;8.95;;;14.30;99.90;;;;;;6277725;22;20086;-82
2022/10/31 00:27:04;;;;;;;13.90;9.15;;;14.30;99.90;;;;;;6249286;22;20026;-82
2022/10/31 00:29:30;;;;;;;13.18;8.80;;;14.30;99.90;;;;;;6277361;22;20086;-82
2022/10/31 00:31:55;;;;;;;14.82;9.27;;;14.20;99.90;;;;;;6249899;22;20352;-82
2022/10/31 00:34:21;;;;;;;14.82;9.52;;;14.30;99.90;;;;;;6277014;22;20338;-81
2022/10/31 00:36:46;;;;;;;12.85;9.40;;;14.20;99.90;;;;;;6250231;22;20020;-82
2022/10/31 00:39:12;;;;;;;12.68;8.57;;;14.20;99.90;;;;;;6277245;22;20026;-82
2022/10/31 00:41:37;;;;;;;13.25;8.45;;;14.20;99.90;;;;;;6275918;22;20011;-82
2022/10/31 00:44:03;;;;;;;16.70;9.48;;;14.20;99.90;;;;;;6249671;22;20505;-82
2022/10/31 00:46:29;;;;;;;13.18;9.18;;;14.10;99.90;;;;;;6277414;22;20015;-82
2022/10/31 00:48:54;;;;;;;13.85;9.45;;;14.10;99.90;;;;;;6248716;22;20018;-82
2022/10/31 00:51:20;;;;;;;12.70;8.70;;;14.10;99.90;;;;;;6249959;22;20047;-82
2022/10/31 00:53:45;;;;;;;13.80;8.95;;;14.10;99.90;;;;;;6248968;22;20019;-82
2022/10/31 00:56:11;;;;;;;14.65;7.97;;;14.00;99.90;;;;;;6248404;22;20042;-81
2022/10/31 00:58:36;;;;;;;13.60;8.70;;;14.00;99.90;;;;;;6277371;22;20012;-81
2022/10/31 01:01:03;;;;;;;13.07;9.20;;;14.00;99.90;;;;;;6249479;22;20556;-82
2022/10/31 01:03:31;;;;;;;12.27;8.43;;;13.90;99.90;;;;;;6248898;22;20023;-82
2022/10/31 01:06:01;;;;;;;11.23;8.82;;;13.90;99.90;;;;;;6249777;22;20016;-82
2022/10/31 01:08:27;;;;;;;12.23;8.32;;;13.90;99.90;;;;;;6249979;22;20023;-82
2022/10/31 01:11:11;;;;;;;12.30;8.63;;;13.80;99.90;;;;;;6248061;22;20047;-82
2022/10/31 01:13:37;;;;;;;14.77;9.50;;;13.80;99.90;;;;;;6249658;22;20019;-81
2022/10/31 01:16:05;;;;;;;12.57;8.88;;;13.80;99.90;;;;;;6249438;22;20022;-82
2022/10/31 01:18:30;;;;;;;11.80;8.23;;;13.70;99.90;;;;;;6249146;22;20387;-81
2022/10/31 01:21:00;;;;;;;13.05;9.15;;;13.70;99.90;;;;;;6249657;22;20043;-81
2022/10/31 01:23:26;;;;;;;14.13;8.57;;;13.70;99.90;;;;;;6249042;22;20054;-82
2022/10/31 01:26:19;;;;;;;11.88;8.73;;;13.60;99.90;;;;;;6249254;22;20019;-82
2022/10/31 01:28:53;;;;;;;13.90;9.07;;;13.60;99.90;;;;;;6275929;22;20419;-82
2022/10/31 01:31:21;;;;;;;18.17;10.13;;;13.50;99.90;;;;;;6275949;22;20034;-82
2022/10/31 01:33:46;;;;;;;11.50;8.50;;;13.60;99.90;;;;;;6276812;22;20008;-82
2022/10/31 01:36:24;;;;;;;12.30;7.97;;;13.50;99.90;;;;;;6249313;22;20466;-82
2022/10/31 01:38:51;;;;;;;12.70;8.50;;;13.50;99.90;;;;;;6276045;22;20378;-82
2022/10/31 01:41:23;;;;;;;12.60;8.40;;;13.50;99.90;;;;;;6249591;22;20023;-82
2022/10/31 01:43:51;;;;;;;15.82;9.30;;;13.50;99.90;;;;;;6276889;22;20019;-82
2022/10/31 01:46:37;;;;;;;14.73;9.25;;;13.50;99.90;;;;;;6275820;22;20022;-81
2022/10/31 01:49:08;;;;;;;13.73;9.15;;;13.50;99.90;;;;;;6276905;22;20387;-82
2022/10/31 01:51:38;;;;;;;12.57;9.38;;;13.40;99.90;;;;;;6275707;22;20012;-82
2022/10/31 01:54:11;;;;;;;16.95;9.95;;;13.50;99.90;;;;;;6248882;22;20102;-82
2022/10/31 01:56:41;;;;;;;13.68;9.00;;;13.40;99.90;;;;;;6276622;22;20027;-82
2022/10/31 01:59:10;;;;;;;11.70;8.55;;;13.40;99.90;;;;;;6248081;22;20042;-82
2022/10/31 02:01:37;;;;;;;15.90;9.93;;;13.40;99.90;;;;;;6276695;22;20074;-82
2022/10/31 02:04:03;;;;;;;12.85;8.38;;;13.40;99.90;;;;;;6276396;22;20019;-82
2022/10/31 02:06:38;;;;;;;15.15;9.52;;;13.30;99.90;;;;;;6275187;22;20047;-81
2022/10/31 02:09:05;;;;;;;13.68;8.90;;;13.30;99.90;;;;;;6266710;22;20339;-82
2022/10/31 02:11:32;;;;;;;13.15;9.20;;;13.30;99.90;;;;;;6248843;22;20474;-82
2022/10/31 02:14:00;;;;;;;12.70;9.23;;;13.30;99.90;;;;;;6247872;22;20020;-82
2022/10/31 02:16:25;;;;;;;17.52;10.77;;;13.30;99.90;;;;;;6249314;22;20016;-82
2022/10/31 02:18:51;;;;;;;12.90;8.77;;;13.30;99.90;;;;;;6248554;22;20128;-82
2022/10/31 02:21:31;;;;;;;15.07;10.80;;;13.30;99.90;;;;;;6275028;22;20011;-82
2022/10/31 02:24:33;;;;;;;14.07;9.15;;;13.30;99.90;;;;;;6248655;22;20051;-82
2022/10/31 02:27:06;;;;;;;12.70;9.05;;;13.20;99.90;;;;;;6274800;22;20027;-82
2022/10/31 02:29:53;;;;;;;12.45;9.15;;;13.20;99.90;;;;;;6249379;22;20030;-82
2022/10/31 02:32:47;;;;;;;13.13;8.93;;;13.20;99.90;;;;;;6276367;22;20094;-83
2022/10/31 02:35:48;;;;;;;13.80;9.15;;;13.10;99.90;;;;;;6248078;22;20382;-82
2022/10/31 02:38:25;;;;;;;11.95;8.73;;;13.20;99.90;;;;;;6248394;22;20026;-82
2022/10/31 02:41:13;;;;;;;13.32;9.50;;;13.10;99.90;;;;;;6247560;22;20046;-82
2022/10/31 02:43:48;;;;;;;14.15;9.27;;;13.10;99.90;;;;;;6276310;22;20024;-82
2022/10/31 02:46:39;;;;;;;13.82;9.55;;;13.10;99.90;;;;;;6248749;22;20027;-82
2022/10/31 02:49:32;;;;;;;14.35;9.13;;;13.10;99.90;;;;;;6246636;22;20055;-82
2022/10/31 02:51:58;;;;;;;11.95;9.57;;;13.10;99.90;;;;;;6248792;22;20023;-82
2022/10/31 02:54:27;;;;;;;12.40;8.90;;;13.10;99.90;;;;;;6276403;22;20014;-83
2022/10/31 02:56:59;;;;;;;11.00;8.20;;;13.00;99.90;;;;;;6272903;22;20061;-83
2022/10/31 02:59:25;;;;;;;12.45;8.93;;;13.00;99.90;;;;;;6275475;22;20012;-83
2022/10/31 03:01:53;;;;;;;11.90;8.52;;;13.00;99.90;;;;;;6246351;22;20050;-84
2022/10/31 03:04:36;;;;;;;13.32;9.18;;;13.00;99.90;;;;;;6247619;22;20028;-83
2022/10/31 03:07:10;;;;;;;12.98;9.02;;;13.00;99.90;;;;;;6249563;22;20030;-84
2022/10/31 03:10:01;;;;;;;11.82;8.68;;;13.00;99.90;;;;;;6248902;22;20339;-83
2022/10/31 03:12:35;;;;;;;12.63;9.15;;;12.90;99.90;;;;;;6249864;22;20015;-83
2022/10/31 03:15:16;;;;;;;14.57;9.07;;;12.90;99.90;;;;;;6276857;22;20022;-83
2022/10/31 03:17:49;;;;;;;11.85;8.82;;;12.90;99.90;;;;;;6249072;22;20020;-83
2022/10/31 03:20:20;;;;;;;13.32;8.80;;;12.80;99.90;;;;;;6249937;22;20015;-83
2022/10/31 03:22:46;;;;;;;12.15;9.30;;;12.80;99.90;;;;;;6249640;22;20012;-82
2022/10/31 03:25:13;;;;;;;14.05;9.00;;;12.80;99.90;;;;;;6248627;22;20081;-83
2022/10/31 03:27:42;;;;;;;11.73;8.25;;;12.80;99.90;;;;;;6249929;22;20046;-83
2022/10/31 03:30:08;;;;;;;13.02;8.57;;;12.80;99.90;;;;;;6276790;22;20019;-84
2022/10/31 03:32:49;;;;;;;11.90;8.40;;;12.70;99.90;;;;;;6250724;22;20039;-84
2022/10/31 03:35:19;;;;;;;11.80;8.60;;;12.70;99.90;;;;;;6278072;22;20047;-84
2022/10/31 03:37:47;;;;;;;13.00;8.93;;;12.70;99.90;;;;;;6250034;22;20031;-83
2022/10/31 03:40:15;;;;;;;13.57;9.43;;;12.70;99.90;;;;;;6250881;22;20016;-83
2022/10/31 03:42:44;;;;;;;11.52;8.63;;;12.70;99.90;;;;;;6250542;22;20019;-83
2022/10/31 03:45:18;;;;;;;11.38;8.57;;;12.60;99.90;;;;;;6250008;22;20016;-84
2022/10/31 03:47:44;;;;;;;11.77;8.68;;;12.60;99.90;;;;;;6249921;22;20038;-84
2022/10/31 03:50:12;;;;;;;12.18;8.55;;;12.60;99.90;;;;;;6250078;22;20015;-84
2022/10/31 03:52:59;;;;;;;11.68;8.98;;;12.60;99.90;;;;;;6276903;22;20012;-83
2022/10/31 03:55:31;;;;;;;13.05;8.82;;;12.50;99.90;;;;;;6277960;22;20019;-83
2022/10/31 03:58:21;;;;;;;13.68;9.13;;;12.50;99.90;;;;;;6276900;22;20035;-84
2022/10/31 04:00:50;;;;;;;12.77;9.20;;;12.50;99.90;;;;;;6277331;22;20440;-84
2022/10/31 04:03:22;;;;;;;11.60;8.98;;;12.50;99.90;;;;;;6276456;22;20518;-84
2022/10/31 04:05:50;;;;;;;13.82;9.07;;;12.50;99.90;;;;;;6249674;22;20340;-84
2022/10/31 04:08:20;;;;;;;14.02;9.02;;;12.40;99.90;;;;;;6250429;22;20321;-84
2022/10/31 04:10:48;;;;;;;13.75;9.60;;;12.40;99.90;;;;;;6250284;22;20076;-84
2022/10/31 04:13:20;;;;;;;12.20;9.30;;;12.40;99.90;;;;;;6249623;22;20046;-84
2022/10/31 04:15:47;;;;;;;11.02;9.02;;;12.40;99.90;;;;;;6250434;22;20012;-84
2022/10/31 04:18:13;;;;;;;13.80;9.32;;;12.40;99.90;;;;;;6277549;22;20471;-84
2022/10/31 04:20:41;;;;;;;12.80;8.95;;;12.40;99.90;;;;;;6276614;22;20016;-83
2022/10/31 04:23:22;;;;;;;12.60;9.45;;;12.30;99.90;;;;;;6249457;22;20014;-84
2022/10/31 04:25:48;;;;;;;13.30;9.10;;;12.30;99.90;;;;;;6250278;22;20054;-84
2022/10/31 04:28:13;;;;;;;12.77;8.85;;;12.30;99.90;;;;;;6249549;22;20012;-84
2022/10/31 04:30:39;;;;;;;12.05;8.60;;;12.30;99.90;;;;;;6250168;22;20020;-84
2022/10/31 04:33:04;;;;;;;11.90;9.00;;;12.30;99.90;;;;;;6249577;22;20353;-84
2022/10/31 04:35:30;;;;;;;12.20;8.77;;;12.20;99.90;;;;;;6276923;22;20030;-84
2022/10/31 04:37:55;;;;;;;10.65;8.82;;;12.20;99.90;;;;;;6276972;22;20019;-84
2022/10/31 04:40:21;;;;;;;14.00;9.90;;;12.20;99.90;;;;;;6276664;22;20082;-84
2022/10/31 04:42:47;;;;;;;13.27;8.98;;;12.20;99.90;;;;;;6249330;22;20344;-84
2022/10/31 04:45:12;;;;;;;11.32;8.95;;;12.20;99.90;;;;;;6249967;22;20016;-84
2022/10/31 04:47:38;;;;;;;11.93;8.63;;;12.10;99.90;;;;;;6249099;22;20020;-85
2022/10/31 04:50:04;;;;;;;12.05;9.02;;;12.10;99.90;;;;;;6276895;22;20012;-85
2022/10/31 04:52:29;;;;;;;11.20;8.90;;;12.10;99.90;;;;;;6250147;22;20024;-85
2022/10/31 04:54:55;;;;;;;12.07;9.02;;;12.00;99.90;;;;;;6248962;22;20023;-85
2022/10/31 04:57:21;;;;;;;11.57;8.55;;;12.00;99.90;;;;;;6277892;22;20047;-84
2022/10/31 04:59:46;;;;;;;11.35;8.93;;;12.00;99.90;;;;;;6249924;22;20462;-85
2022/10/31 05:02:12;;;;;;;12.75;8.57;;;12.00;99.90;;;;;;6275776;22;20016;-84
2022/10/31 05:04:37;;;;;;;12.55;8.60;;;12.00;99.90;;;;;;6249265;22;20015;-84
2022/10/31 05:07:03;;;;;;;11.25;8.73;;;11.90;99.90;;;;;;6277025;22;20047;-84
2022/10/31 05:09:29;;;;;;;14.20;9.23;;;11.90;99.90;;;;;;6249094;22;20020;-84
2022/10/31 05:11:54;;;;;;;10.95;8.75;;;11.90;99.90;;;;;;6249782;22;20019;-85
2022/10/31 05:14:20;;;;;;;10.88;8.35;;;11.90;99.90;;;;;;6276605;22;20018;-85
2022/10/31 05:16:45;;;;;;;12.48;8.85;;;11.80;99.90;;;;;;6248491;22;20098;-84
2022/10/31 05:19:11;;;;;;;12.80;9.00;;;11.80;99.90;;;;;;6249724;22;20015;-85
2022/10/31 05:21:36;;;;;;;12.32;9.25;;;11.80;99.90;;;;;;6249866;22;20067;-85
2022/10/31 05:24:02;;;;;;;12.60;8.85;;;11.80;99.90;;;;;;6248479;22;20773;-84
2022/10/31 05:26:28;;;;;;;11.63;8.07;;;11.70;99.90;;;;;;6249999;22;20012;-85
2022/10/31 05:28:53;;;;;;;11.93;8.43;;;11.70;99.90;;;;;;6249021;22;20027;-85
2022/10/31 05:31:19;;;;;;;11.80;8.45;;;11.70;99.90;;;;;;6248566;22;20015;-85
2022/10/31 05:33:44;;;;;;;10.88;8.52;;;11.70;99.90;;;;;;6249026;22;20102;-84
2022/10/31 05:36:10;;;;;;;10.52;8.38;;;11.70;99.90;;;;;;6275547;22;20016;-84
2022/10/31 05:38:35;;;;;;;10.75;7.80;;;11.60;99.90;;;;;;6246852;22;20023;-84
2022/10/31 05:41:01;;;;;;;11.98;8.25;;;11.60;99.90;;;;;;6249087;22;20443;-84
2022/10/31 05:43:28;;;;;;;10.05;8.30;;;11.60;99.90;;;;;;6276523;22;20016;-84
2022/10/31 05:45:55;;;;;;;11.52;8.18;;;11.50;99.90;;;;;;6275851;22;20012;-83
2022/10/31 05:48:21;;;;;;;11.65;9.07;;;11.50;99.90;;;;;;6249140;22;20015;-84
2022/10/31 05:50:48;;;;;;;11.32;8.43;;;11.50;99.90;;;;;;6249392;22;20011;-84
2022/10/31 05:53:14;;;;;;;9.57;8.32;;;11.50;99.90;;;;;;6249350;22;20094;-84
2022/10/31 05:55:43;;;;;;;10.35;7.95;;;11.50;99.90;;;;;;6249382;22;20020;-84
2022/10/31 05:58:10;;;;;;;11.25;8.60;;;11.40;99.90;;;;;;6276524;22;20083;-84
2022/10/31 06:00:35;;;;;;;10.57;8.32;;;11.40;99.90;;;;;;6249109;22;20026;-84
2022/10/31 06:03:04;;;;;;;10.02;8.05;;;11.40;99.90;;;;;;6248952;22;20051;-84
2022/10/31 06:05:30;;;;;;;11.85;8.43;;;11.40;99.90;;;;;;6248577;22;20054;-84
2022/10/31 06:07:56;;;;;;;10.80;8.20;;;11.40;99.90;;;;;;6249114;22;20019;-84
2022/10/31 06:10:22;;;;;;;11.80;7.13;;;11.40;99.90;;;;;;6276367;22;20030;-83
2022/10/31 06:12:48;;;;;;;10.35;7.75;;;11.40;99.90;;;;;;6248243;22;20015;-84
2022/10/31 06:15:13;;;;;;;10.10;7.47;;;11.30;99.90;;;;;;6249485;22;20074;-83
2022/10/31 06:17:39;;;;;;;11.43;7.90;;;11.30;99.90;;;;;;6276682;22;20030;-83
2022/10/31 06:20:06;;;;;;;9.45;7.43;;;11.30;99.90;;;;;;6275442;22;20098;-83
2022/10/31 06:22:32;;;;;;;9.77;7.25;;;11.30;99.90;;;;;;6249066;22;20454;-82
2022/10/31 06:24:58;;;;;;;8.80;7.00;;;11.30;99.90;;;;;;6268863;22;20015;-83
2022/10/31 06:27:24;;;;;;;8.88;7.00;;;11.30;99.90;;;;;;6246857;22;20456;-82
2022/10/31 06:29:50;;;;;;;8.63;6.80;;;11.20;99.90;;;;;;6246636;22;20026;-83
2022/10/31 06:32:16;;;;;;;9.73;7.03;;;11.20;99.90;;;;;;6250117;22;20322;-91
2022/10/31 06:34:42;;;;;;;7.53;6.00;;;11.20;99.90;;;;;;6249522;22;20016;-89
2022/10/31 06:37:09;;;;;;;8.85;6.55;;;11.20;99.90;;;;;;6251112;22;20478;-92
2022/10/31 06:39:35;;;;;;;8.90;6.57;;;11.20;99.90;;;;;;6251152;22;20506;-92
2022/10/31 06:42:01;;;;;;;8.70;6.50;;;11.20;99.90;;;;;;6278195;22;20008;-86
2022/10/31 06:44:26;;;;;;;8.15;6.15;;;11.20;99.90;;;;;;6275415;22;20109;-84
2022/10/31 06:46:52;;;;;;;7.90;5.80;;;11.10;99.90;;;;;;6274183;22;20020;-83
2022/10/31 06:49:18;;;;;;;7.95;6.35;;;11.10;99.90;;;;;;6249021;22;20004;-84
2022/10/31 06:51:47;;;;;;;8.48;6.22;;;11.10;99.90;;;;;;6248230;22;20074;-84
2022/10/31 06:54:13;;;;;;;9.32;6.60;;;11.00;99.90;;;;;;6246879;22;20386;-84
2022/10/31 06:56:38;;;;;;;8.27;6.05;;;11.00;99.90;;;;;;6248945;22;20174;-84
2022/10/31 06:59:04;;;;;;;8.40;6.30;;;11.00;99.90;;;;;;6276299;22;20017;-83
2022/10/31 07:01:29;;;;;;;8.20;6.40;;;11.00;99.90;;;;;;6274993;22;20432;-83
2022/10/31 07:03:55;;;;;;;8.68;6.03;;;10.90;99.90;;;;;;6248092;22;20106;-83
2022/10/31 07:06:21;;;;;;;8.73;5.93;;;10.90;99.90;;;;;;6276502;22;20016;-83
2022/10/31 07:08:46;;;;;;;7.82;6.07;;;10.90;99.90;;;;;;6247219;22;20011;-83
2022/10/31 07:11:12;;;;;;;9.05;6.05;;;10.90;99.90;;;;;;6248715;22;20098;-83
2022/10/31 07:13:37;;;;;;;8.95;6.32;;;10.80;99.90;;;;;;6249141;22;20018;-84
2022/10/31 07:16:06;;;;;;;8.07;5.88;;;10.80;99.90;;;;;;6247872;22;20042;-83
2022/10/31 07:18:32;;;;;;;8.25;5.78;;;10.80;99.90;;;;;;6248636;22;20050;-84
2022/10/31 07:20:57;;;;;;;8.48;5.90;;;10.80;99.90;;;;;;6276280;22;20370;-83
2022/10/31 07:23:23;;;;;;;7.57;5.70;;;10.80;99.90;;;;;;6247509;22;20026;-83
2022/10/31 07:25:54;;;;;;;7.97;5.80;;;10.80;99.90;;;;;;6274192;22;20482;-82
2022/10/31 07:28:19;;;;;;;9.02;5.97;;;10.70;99.90;;;;;;6247601;22;20016;-83
2022/10/31 07:30:53;;;;;;;7.75;5.53;;;10.70;99.90;;;;;;6274030;22;20012;-84
2022/10/31 07:33:19;;;;;;;8.75;5.93;;;10.70;99.90;;;;;;6249187;22;20325;-83
2022/10/31 07:35:45;;;;;;;8.18;5.78;;;10.70;99.90;;;;;;6248253;22;20023;-84
2022/10/31 07:38:12;;;;;;;7.05;5.60;;;10.70;99.90;;;;;;6247875;22;20016;-82
2022/10/31 07:40:38;;;;;;;8.27;6.15;;;10.70;99.90;;;;;;6273667;22;20016;-83
2022/10/31 07:43:04;;;;;;;7.55;5.65;;;10.70;99.90;;;;;;6247109;22;20008;-85
2022/10/31 07:45:30;;;;;;;9.80;6.28;;;10.70;99.90;;;;;;6273693;22;20091;-84
2022/10/31 07:47:56;;;;;;;7.25;5.85;;;10.70;99.90;;;;;;6248096;22;20023;-83
2022/10/31 07:50:35;;;;;;;7.97;5.82;;;10.70;99.90;;;;;;6275180;22;20328;-83
2022/10/31 07:53:05;;;;;;;7.95;6.22;;;10.70;99.90;;;;;;6278134;22;20012;-83
2022/10/31 07:55:31;;;;;;;10.27;6.72;;;10.70;99.90;;;;;;6277364;22;20015;-82
2022/10/31 07:58:01;;;;;;;7.85;5.93;;;10.70;99.90;;;;;;6276738;22;20102;-82
2022/10/31 08:00:27;;;;;;;10.05;6.40;;;10.70;99.90;;;;;;6250567;22;20455;-83
2022/10/31 08:03:05;;;;;;;20.13;7.97;;;10.70;99.90;;;;;;6250041;22;20015;-83
2022/10/31 08:05:32;;;;;;;8.73;6.35;;;10.70;99.90;;;;;;6249798;22;20012;-83
2022/10/31 08:07:58;;;;;;;9.32;6.35;;;10.70;99.90;;;;;;6277407;22;20436;-82
2022/10/31 08:10:24;;;;;;;9.38;6.55;;;10.80;99.90;;;;;;6250759;22;20095;-82
2022/10/31 08:13:16;;;;;;;8.55;5.90;;;10.80;99.90;;;;;;6276784;22;20016;-82
2022/10/31 08:15:42;;;;;;;12.50;7.57;;;10.80;99.90;;;;;;6247692;22;20019;-83
2022/10/31 08:18:12;;;;;;;8.10;6.43;;;10.80;99.90;;;;;;6277862;22;20012;-83
2022/10/31 08:20:39;;;;;;;8.52;6.70;;;10.80;99.90;;;;;;6277402;22;20012;-82
2022/10/31 08:23:05;;;;;;;12.95;8.95;;;10.90;99.90;;;;;;6277562;22;20018;-82
2022/10/31 08:25:32;;;;;;;10.23;6.65;;;10.90;99.90;;;;;;6249184;22;20016;-82
2022/10/31 08:27:58;;;;;;;12.80;9.68;;;11.00;99.90;;;;;;6250473;22;20012;-83
2022/10/31 08:30:26;;;;;;;9.85;7.07;;;11.00;99.90;;;;;;6250784;22;20099;-82
2022/10/31 08:33:05;;;;;;;9.40;7.40;;;11.00;99.90;;;;;;6249238;22;20525;-82
2022/10/31 08:35:34;;;;;;;13.52;9.50;;;11.00;99.90;;;;;;6249609;22;20038;-81
2022/10/31 08:38:01;;;;;;;17.15;13.02;;;11.10;99.90;;;;;;6250255;22;20094;-82
2022/10/31 08:40:28;;;;;;;11.43;9.13;;;11.10;99.90;;;;;;6276749;22;20015;-82
2022/10/31 08:43:02;;;;;;;12.55;9.13;;;11.20;99.90;;;;;;6277100;22;20078;-83
2022/10/31 08:45:30;;;;;;;9.55;7.32;;;11.20;99.90;;;;;;6250528;22;20016;-82
2022/10/31 08:48:05;;;;;;;12.07;9.82;;;11.30;99.90;;;;;;6248322;22;20367;-83
2022/10/31 08:50:33;;;;;;;14.00;9.85;;;11.30;99.90;;;;;;6275320;22;20015;-82
2022/10/31 08:53:04;;;;;;;19.58;14.10;;;11.30;99.90;;;;;;6249382;22;20452;-83
2022/10/31 08:55:29;;;;;;;17.90;12.38;;;11.40;99.90;;;;;;6249476;22;20027;-83
2022/10/31 08:57:58;;;;;;;19.83;14.27;;;11.40;99.90;;;;;;6249827;22;20007;-83
2022/10/31 09:00:24;;;;;;;15.35;11.30;;;11.40;99.90;;;;;;6250120;22;20331;-83
2022/10/31 09:03:01;;;;;;;14.88;11.85;;;11.50;99.90;;;;;;6247440;22;20110;-84
2022/10/31 09:05:27;;;;;;;13.75;10.40;;;11.60;99.90;;;;;;6275736;22;20020;-84
2022/10/31 09:08:02;;;;;;;13.00;10.80;;;11.50;99.90;;;;;;6248103;22;20035;-83
2022/10/31 09:10:28;;;;;;;12.40;9.57;;;11.60;99.90;;;;;;6249961;22;20452;-83
2022/10/31 09:13:01;;;;;;;15.95;12.52;;;11.60;99.90;;;;;;6249532;22;20012;-83
2022/10/31 09:15:28;;;;;;;15.43;11.05;;;11.60;99.90;;;;;;6249102;22;20011;-83
2022/10/31 09:17:54;;;;;;;20.23;15.00;;;11.70;99.90;;;;;;6249794;22;20015;-83
2022/10/31 09:20:20;;;;;;;15.05;11.43;;;11.70;99.90;;;;;;6250066;22;20034;-83
2022/10/31 09:22:46;;;;;;;15.45;11.18;;;11.70;99.90;;;;;;6248009;22;20012;-82
2022/10/31 09:25:12;;;;;;;19.52;14.63;;;11.70;99.90;;;;;;6276953;22;20023;-86
2022/10/31 09:27:37;;;;;;;16.13;12.23;;;11.80;99.90;;;;;;6249159;22;20020;-85
2022/10/31 09:30:04;;;;;;;19.73;13.93;;;11.80;99.90;;;;;;6248580;22;20340;-84
2022/10/31 09:32:30;;;;;;;14.20;12.38;;;11.80;99.90;;;;;;6276193;22;20459;-83
2022/10/31 09:34:55;;;;;;;18.23;13.32;;;11.80;99.90;;;;;;6275964;22;20012;-85
2022/10/31 09:37:21;;;;;;;12.65;10.18;;;11.90;99.90;;;;;;6275729;22;20043;-84
2022/10/31 09:39:47;;;;;;;14.98;11.90;;;11.90;99.90;;;;;;6276092;22;20012;-84
2022/10/31 09:42:45;;;;;;;18.85;14.88;;;11.90;99.90;;;;;;6276675;22;20309;-83
2022/10/31 09:45:35;;;;;;;23.40;17.45;;;12.00;99.90;;;;;;6249447;22;20008;-83
2022/10/31 09:48:15;;;;;;;16.20;12.35;;;12.00;99.90;;;;;;6249304;22;20015;-84
2022/10/31 09:50:52;;;;;;;19.65;15.48;;;12.00;99.90;;;;;;6275866;22;20019;-84
2022/10/31 09:53:37;;;;;;;18.88;13.98;;;12.00;99.90;;;;;;6247820;22;20102;-84
2022/10/31 09:56:08;;;;;;;16.27;13.13;;;12.10;99.90;;;;;;6271952;22;20091;-84
2022/10/31 09:58:40;;;;;;;18.05;14.40;;;12.00;99.90;;;;;;6275667;22;20452;-83
2022/10/31 10:01:11;;;;;;;14.98;12.20;;;12.10;99.90;;;;;;6275099;22;20063;-85
2022/10/31 10:03:45;;;;;;;19.80;14.38;;;12.10;99.90;;;;;;6249089;22;20015;-85
2022/10/31 10:06:16;;;;;;;19.55;15.05;;;12.20;99.90;;;;;;6248257;22;20091;-87
2022/10/31 10:08:42;;;;;;;14.70;12.15;;;12.10;99.90;;;;;;6248566;22;20464;-85
2022/10/31 10:11:25;;;;;;;19.65;15.65;;;12.20;99.90;;;;;;6276099;22;20107;-85
2022/10/31 10:14:14;;;;;;;26.70;18.27;;;12.20;99.90;;;;;;6248674;22;20050;-85
2022/10/31 10:16:53;;;;;;;22.00;16.73;;;12.30;99.90;;;;;;6248593;22;20094;-86
2022/10/31 10:19:49;;;;;;;24.60;16.60;;;12.30;99.90;;;;;;6248745;22;20099;-85
2022/10/31 10:22:20;;;;;;;20.80;16.00;;;12.30;99.90;;;;;;6276383;22;20027;-85
2022/10/31 10:25:10;;;;;;;22.48;16.00;;;12.30;99.90;;;;;;6248687;22;20019;-85
2022/10/31 10:27:41;;;;;;;21.13;15.52;;;12.40;99.90;;;;;;6239730;22;20055;-84
2022/10/31 10:30:23;;;;;;;20.73;15.48;;;12.40;99.90;;;;;;6247744;22;20086;-85
2022/10/31 10:32:57;;;;;;;24.02;18.45;;;12.40;99.90;;;;;;6260836;22;20097;-85
2022/10/31 10:35:25;;;;;;;27.08;18.85;;;12.50;99.90;;;;;;6247714;22;20039;-85
2022/10/31 10:38:03;;;;;;;24.33;17.90;;;12.50;99.90;;;;;;6241820;22;20015;-86
2022/10/31 10:40:29;;;;;;;19.92;15.40;;;12.60;99.90;;;;;;6247321;22;20020;-85
2022/10/31 10:43:22;;;;;;;24.77;18.95;;;12.60;99.90;;;;;;6275520;22;20089;-86
2022/10/31 10:49:18;;;;;;;25.92;19.42;;;12.70;99.90;;;;;;6245964;22;20020;-84
2022/10/31 10:51:44;;;;;;;26.90;18.33;;;12.70;99.90;;;;;;6275918;22;20015;-85
2022/10/31 10:54:57;;;;;;;27.20;18.65;;;12.80;99.90;;;;;;6248483;22;20058;-85
2022/10/31 10:57:47;;;;;;;28.95;18.88;;;12.80;99.90;;;;;;6133105;23;20033;-86
2022/10/31 11:00:42;;;;;;;24.80;17.40;;;12.90;99.90;;;;;;6165864;23;20052;-85
2022/10/31 11:03:09;;;;;;;24.00;16.98;;;13.00;99.90;;;;;;6260874;22;20080;-84
2022/10/31 11:05:52;;;;;;;23.30;16.17;;;13.00;99.90;;;;;;6247064;22;20034;-84
2022/10/31 11:08:28;;;;;;;22.40;16.25;;;13.10;99.90;;;;;;6275750;22;20344;-85
2022/10/31 11:11:08;;;;;;;23.95;16.10;;;13.10;99.90;;;;;;6248608;22;20047;-85
2022/10/31 11:13:34;;;;;;;24.95;15.75;;;13.10;99.90;;;;;;6277926;22;20045;-84
2022/10/31 11:16:06;;;;;;;20.58;14.27;;;13.20;99.90;;;;;;6250013;22;20019;-84
2022/10/31 11:18:36;;;;;;;22.65;14.48;;;13.20;99.90;;;;;;6248582;22;20016;-84
2022/10/31 11:21:05;;;;;;;19.25;14.27;;;13.30;99.90;;;;;;6276373;22;20008;-85
2022/10/31 11:23:32;;;;;;;21.10;14.10;;;13.30;99.90;;;;;;6249049;22;20016;-84
2022/10/31 11:26:06;;;;;;;20.88;13.80;;;13.30;99.90;;;;;;6275933;22;20091;-85
2022/10/31 11:28:34;;;;;;;18.55;14.40;;;13.40;99.90;;;;;;6250397;22;20452;-84
2022/10/31 11:31:08;;;;;;;20.88;15.13;;;13.40;99.90;;;;;;6250573;22;20061;-86
2022/10/31 11:34:02;;;;;;;20.95;14.70;;;13.40;99.90;;;;;;6278843;22;20011;-92
2022/10/31 11:36:31;;;;;;;21.02;13.50;;;13.50;99.90;;;;;;6273275;22;20070;-92
2022/10/31 11:38:58;;;;;;;16.98;11.98;;;13.50;99.90;;;;;;6274164;22;20070;-84
2022/10/31 11:41:38;;;;;;;16.42;10.82;;;13.60;99.90;;;;;;6275933;22;20023;-85
2022/10/31 11:44:05;;;;;;;18.90;11.00;;;13.60;99.90;;;;;;6274616;22;20061;-85
2022/10/31 11:46:51;;;;;;;14.68;9.98;;;13.70;99.90;;;;;;6250567;22;20012;-85
2022/10/31 11:49:39;;;;;;;15.15;10.65;;;13.70;99.90;;;;;;6240019;22;20015;-84
2022/10/31 11:52:17;;;;;;;16.17;9.27;;;13.80;99.90;;;;;;6249478;22;20019;-84
2022/10/31 11:55:06;;;;;;;14.90;7.93;;;13.90;99.90;;;;;;6249271;22;20035;-84
2022/10/31 11:57:45;;;;;;;12.60;8.35;;;13.90;99.90;;;;;;6276196;22;20020;-84
2022/10/31 12:00:29;;;;;;;12.95;7.00;;;14.00;99.90;;;;;;6248789;22;20011;-84
2022/10/31 12:03:44;;;;;;;13.20;7.03;;;14.00;99.90;;;;;;6250033;22;20146;-83
2022/10/31 12:06:17;;;;;;;12.68;6.45;;;14.10;99.90;;;;;;6248761;22;20016;-84
2022/10/31 12:08:43;;;;;;;12.13;6.03;;;14.10;99.90;;;;;;6249986;22;20019;-83
2022/10/31 12:11:37;;;;;;;14.13;6.65;;;14.20;99.90;;;;;;6276356;22;20012;-84
2022/10/31 12:14:46;;;;;;;14.05;7.63;;;14.20;99.90;;;;;;6277340;22;20058;-84
2022/10/31 12:17:27;;;;;;;14.32;6.93;;;14.30;99.90;;;;;;6250104;22;20047;-84
2022/10/31 12:20:07;;;;;;;11.35;6.25;;;14.30;99.90;;;;;;6248909;22;20051;-84
2022/10/31 12:22:41;;;;;;;9.88;6.93;;;14.30;99.90;;;;;;6249909;22;20016;-84
2022/10/31 12:25:17;;;;;;;13.27;7.75;;;14.40;99.90;;;;;;6248886;22;20022;-84
2022/10/31 12:28:12;;;;;;;12.15;5.97;;;14.40;99.90;;;;;;6249895;22;20051;-84
2022/10/31 12:30:49;;;;;;;12.38;6.50;;;14.40;99.90;;;;;;6249635;22;20039;-84
2022/10/31 12:33:21;;;;;;;11.05;6.47;;;14.40;99.90;;;;;;6275956;22;20103;-83
2022/10/31 12:36:10;;;;;;;12.65;7.00;;;14.40;99.90;;;;;;6249411;22;20103;-84
2022/10/31 12:38:54;;;;;;;10.57;6.05;;;14.50;99.90;;;;;;6248217;22;20016;-84
2022/10/31 12:42:15;;;;;;;13.85;5.53;;;14.50;99.90;;;;;;6242899;22;20093;-84
2022/10/31 12:45:05;;;;;;;11.65;4.68;;;14.50;99.90;;;;;;6183578;23;20021;-86
2022/10/31 12:47:31;;;;;;;10.70;5.20;;;14.60;99.90;;;;;;6249203;22;20015;-86
2022/10/31 12:50:26;;;;;;;12.82;5.90;;;14.60;99.90;;;;;;6249453;22;20023;-86
2022/10/31 12:53:11;;;;;;;10.73;5.72;;;14.60;99.90;;;;;;6275765;22;20130;-85
2022/10/31 12:56:12;;;;;;;10.23;5.38;;;14.70;99.90;;;;;;6250004;22;20015;-85
2022/10/31 12:58:50;;;;;;;11.48;6.03;;;14.70;99.90;;;;;;6276998;22;20012;-86
2022/10/31 13:01:38;;;;;;;15.38;5.60;;;14.70;99.90;;;;;;6274339;22;20020;-86